Time;durP1;ratioP1;P1;durP2;ratioP2;P2;SDS_P1;SDS_P2;PMS_P1;PMS_P2;Temp;Humidity;BMP_temperature;BMP_pressure;BME280_temperature;BME280_humidity;BME280_pressure;Samples;Min_cycle;Max_cycle;Signal;HPM_P1;HPM_P2
2021/12/06 00:00:53;;;;;;;14.68;10.15;;;;;;;;;;5034500;28;20609;-67
2021/12/06 00:03:20;;;;;;;13.77;9.00;;;;;;;;;;5034153;28;20182;-67
2021/12/06 00:05:46;;;;;;;11.57;8.25;;;;;;;;;;5033952;28;20554;-67
2021/12/06 00:08:11;;;;;;;13.77;8.57;;;;;;;;;;5034099;28;20177;-66
2021/12/06 00:10:37;;;;;;;12.98;7.32;;;;;;;;;;5034081;28;20170;-67
2021/12/06 00:13:02;;;;;;;10.43;6.60;;;;;;;;;;5033795;28;20312;-67
2021/12/06 00:15:32;;;;;;;11.20;7.82;;;;;;;;;;5033208;28;20186;-66
2021/12/06 00:17:57;;;;;;;9.02;7.30;;;;;;;;;;5033834;28;20189;-66
2021/12/06 00:20:22;;;;;;;11.32;7.50;;;;;;;;;;5033826;28;20170;-66
2021/12/06 00:22:48;;;;;;;7.93;6.40;;;;;;;;;;5033856;28;20201;-66
2021/12/06 00:25:14;;;;;;;7.53;5.80;;;;;;;;;;5032652;28;20170;-66
2021/12/06 00:27:40;;;;;;;11.70;6.93;;;;;;;;;;5033833;28;20187;-67
2021/12/06 00:30:11;;;;;;;9.77;6.50;;;;;;;;;;5033803;28;20238;-67
2021/12/06 00:32:37;;;;;;;9.20;5.90;;;;;;;;;;5033540;28;20200;-66
2021/12/06 00:35:02;;;;;;;9.50;6.72;;;;;;;;;;5033885;28;20228;-67
2021/12/06 00:37:40;;;;;;;10.15;7.30;;;;;;;;;;5033560;28;20570;-67
2021/12/06 00:40:09;;;;;;;13.02;7.88;;;;;;;;;;5033770;28;20591;-66
2021/12/06 00:42:35;;;;;;;18.27;9.10;;;;;;;;;;5033378;28;20648;-67
2021/12/06 00:45:02;;;;;;;13.55;8.07;;;;;;;;;;5033404;28;20174;-67
2021/12/06 00:47:28;;;;;;;13.05;7.95;;;;;;;;;;5033268;28;20193;-66
2021/12/06 00:49:53;;;;;;;12.90;8.00;;;;;;;;;;5033302;28;20170;-66
2021/12/06 00:52:19;;;;;;;12.48;7.10;;;;;;;;;;5033586;28;20166;-66
2021/12/06 00:54:45;;;;;;;9.57;7.32;;;;;;;;;;5033175;28;20170;-67
2021/12/06 00:57:11;;;;;;;11.18;6.50;;;;;;;;;;5033402;28;20543;-66
2021/12/06 00:59:37;;;;;;;12.05;7.47;;;;;;;;;;5033139;28;20649;-66
2021/12/06 01:02:03;;;;;;;10.05;6.95;;;;;;;;;;5033344;28;20193;-66
2021/12/06 01:04:30;;;;;;;10.73;7.25;;;;;;;;;;5033220;28;20232;-67
2021/12/06 01:06:55;;;;;;;11.90;7.65;;;;;;;;;;5032852;28;20190;-66
2021/12/06 01:09:21;;;;;;;10.15;6.70;;;;;;;;;;5032993;28;20599;-69
2021/12/06 01:11:46;;;;;;;9.38;6.43;;;;;;;;;;5032896;28;20224;-67
2021/12/06 01:14:11;;;;;;;13.02;7.80;;;;;;;;;;5031536;28;20193;-66
2021/12/06 01:16:36;;;;;;;8.05;6.53;;;;;;;;;;5032850;28;20285;-66
2021/12/06 01:19:02;;;;;;;8.98;6.72;;;;;;;;;;5032728;28;20228;-66
2021/12/06 01:24:09;;;;;;;9.93;6.22;;;;;;;;;;5032777;28;20158;-67
2021/12/06 01:26:55;;;;;;;10.38;6.57;;;;;;;;;;5032445;28;20252;-66
2021/12/06 01:32:26;;;;;;;9.88;6.32;;;;;;;;;;5032935;28;20181;-67
2021/12/06 01:40:02;;;;;;;8.07;5.78;;;;;;;;;;5032899;28;20157;-67
2021/12/06 01:42:27;;;;;;;8.23;5.78;;;;;;;;;;5032439;28;20652;-66
2021/12/06 01:44:54;;;;;;;9.00;5.13;;;;;;;;;;5047745;28;20201;-67
2021/12/06 01:47:25;;;;;;;9.18;5.18;;;;;;;;;;5032211;28;20285;-66
2021/12/06 01:49:55;;;;;;;8.38;6.40;;;;;;;;;;5032444;28;20208;-67
2021/12/06 01:52:43;;;;;;;6.65;5.35;;;;;;;;;;5031829;28;20235;-66
2021/12/06 01:55:10;;;;;;;6.70;5.28;;;;;;;;;;5034321;28;20576;-66
2021/12/06 01:57:36;;;;;;;8.73;6.20;;;;;;;;;;5032084;28;20181;-66
2021/12/06 02:00:04;;;;;;;11.68;6.68;;;;;;;;;;5032105;28;20175;-65
2021/12/06 02:02:29;;;;;;;7.95;5.57;;;;;;;;;;5032062;28;20171;-66
2021/12/06 02:04:55;;;;;;;8.93;6.05;;;;;;;;;;5032198;28;20228;-66
2021/12/06 02:07:22;;;;;;;8.20;6.05;;;;;;;;;;5032168;28;20194;-66
2021/12/06 02:09:48;;;;;;;8.18;5.95;;;;;;;;;;5031980;28;20163;-66
2021/12/06 02:12:14;;;;;;;8.52;5.82;;;;;;;;;;5032250;28;20249;-66
2021/12/06 02:19:34;;;;;;;9.57;5.85;;;;;;;;;;5032165;28;20644;-66
2021/12/06 02:22:01;;;;;;;8.02;5.72;;;;;;;;;;5031851;28;20268;-67
2021/12/06 02:24:27;;;;;;;10.25;6.22;;;;;;;;;;5032100;28;20186;-66
2021/12/06 02:26:53;;;;;;;7.95;5.53;;;;;;;;;;5031698;28;20714;-66
2021/12/06 02:29:19;;;;;;;8.18;5.97;;;;;;;;;;5031735;28;20178;-66
2021/12/06 02:31:44;;;;;;;7.63;5.88;;;;;;;;;;5031614;28;20187;-66
2021/12/06 02:34:09;;;;;;;8.90;6.50;;;;;;;;;;5031928;28;20159;-66
2021/12/06 02:36:35;;;;;;;10.23;6.95;;;;;;;;;;5031727;28;20174;-66
2021/12/06 02:39:01;;;;;;;12.23;6.63;;;;;;;;;;5036002;28;20174;-66
2021/12/06 02:41:26;;;;;;;10.18;7.20;;;;;;;;;;5035542;28;20179;-66
2021/12/06 02:43:52;;;;;;;8.65;6.38;;;;;;;;;;5035914;28;20236;-66
2021/12/06 02:46:18;;;;;;;10.48;6.57;;;;;;;;;;5035546;28;20186;-66
2021/12/06 02:48:43;;;;;;;10.85;6.68;;;;;;;;;;5035519;28;20324;-66
2021/12/06 02:51:09;;;;;;;11.68;7.10;;;;;;;;;;5035580;28;20170;-67
2021/12/06 02:53:35;;;;;;;11.93;7.60;;;;;;;;;;5050870;28;20173;-66
2021/12/06 02:56:04;;;;;;;11.27;7.38;;;;;;;;;;5035739;28;20166;-67
2021/12/06 03:01:31;;;;;;;13.05;7.28;;;;;;;;;;5035333;28;20220;-66
2021/12/06 03:03:57;;;;;;;14.68;9.02;;;;;;;;;;5038927;28;20756;-67
2021/12/06 03:06:23;;;;;;;13.23;8.27;;;;;;;;;;5035414;28;20256;-66
2021/12/06 03:08:53;;;;;;;13.10;8.00;;;;;;;;;;5035491;28;20584;-66
2021/12/06 03:11:23;;;;;;;13.23;8.45;;;;;;;;;;5035143;28;20174;-67
2021/12/06 03:13:48;;;;;;;15.32;8.55;;;;;;;;;;5035102;28;20167;-66
2021/12/06 03:16:14;;;;;;;16.67;10.20;;;;;;;;;;5035130;28;20225;-66
2021/12/06 03:18:44;;;;;;;16.05;8.60;;;;;;;;;;5035005;28;20198;-67
2021/12/06 03:21:09;;;;;;;16.05;10.50;;;;;;;;;;5035286;28;20225;-66
2021/12/06 03:23:35;;;;;;;17.13;10.88;;;;;;;;;;5035183;28;20179;-67
2021/12/06 03:26:00;;;;;;;16.13;10.52;;;;;;;;;;5035076;28;20202;-66
2021/12/06 03:28:25;;;;;;;17.25;10.82;;;;;;;;;;5034845;28;20225;-66
2021/12/06 03:30:51;;;;;;;15.57;9.80;;;;;;;;;;5034968;28;20170;-67
2021/12/06 03:33:16;;;;;;;13.45;8.27;;;;;;;;;;5034631;28;20201;-68
2021/12/06 03:35:41;;;;;;;14.13;8.05;;;;;;;;;;5034970;28;20163;-67
2021/12/06 03:38:07;;;;;;;12.25;8.07;;;;;;;;;;5034976;28;20170;-67
2021/12/06 03:40:34;;;;;;;13.90;8.55;;;;;;;;;;5034654;28;20249;-67
2021/12/06 03:42:59;;;;;;;13.52;8.27;;;;;;;;;;5034578;28;20159;-67
2021/12/06 03:45:25;;;;;;;13.13;8.57;;;;;;;;;;5034578;28;20170;-67
2021/12/06 03:47:50;;;;;;;15.38;8.23;;;;;;;;;;5034223;28;20222;-67
2021/12/06 03:50:16;;;;;;;13.18;8.15;;;;;;;;;;5034730;28;20257;-67
2021/12/06 03:52:41;;;;;;;11.65;6.97;;;;;;;;;;5034510;28;20651;-67
2021/12/06 03:55:08;;;;;;;10.68;7.10;;;;;;;;;;5034349;28;20166;-67
2021/12/06 03:57:33;;;;;;;11.38;7.55;;;;;;;;;;5033090;28;20171;-67
2021/12/06 03:59:59;;;;;;;16.67;9.30;;;;;;;;;;5034327;28;20171;-68
2021/12/06 04:02:26;;;;;;;17.27;10.30;;;;;;;;;;5034326;28;20202;-67
2021/12/06 04:04:52;;;;;;;17.73;10.30;;;;;;;;;;5034221;28;20178;-67
2021/12/06 04:07:17;;;;;;;19.38;11.38;;;;;;;;;;5034101;28;20578;-67
2021/12/06 04:09:43;;;;;;;20.02;12.43;;;;;;;;;;5034146;28;20170;-67
2021/12/06 04:12:09;;;;;;;16.92;10.80;;;;;;;;;;5034099;28;20648;-67
2021/12/06 04:14:35;;;;;;;15.63;9.27;;;;;;;;;;5033930;28;20186;-67
2021/12/06 04:17:00;;;;;;;12.90;8.75;;;;;;;;;;5034198;28;20177;-67
2021/12/06 04:19:26;;;;;;;12.07;7.10;;;;;;;;;;5034202;28;20170;-67
2021/12/06 04:21:51;;;;;;;9.10;7.13;;;;;;;;;;5034062;28;20179;-67
2021/12/06 04:24:16;;;;;;;8.02;5.60;;;;;;;;;;5034128;28;20178;-67
2021/12/06 04:26:42;;;;;;;7.75;5.20;;;;;;;;;;5034011;28;20190;-67
2021/12/06 04:29:08;;;;;;;8.13;4.53;;;;;;;;;;5034024;28;20197;-67
2021/12/06 04:31:35;;;;;;;5.00;4.50;;;;;;;;;;5033570;28;20162;-67
2021/12/06 04:34:00;;;;;;;5.13;4.30;;;;;;;;;;5034015;28;20186;-67
2021/12/06 04:36:26;;;;;;;5.95;4.35;;;;;;;;;;5033625;28;20533;-68
2021/12/06 04:38:52;;;;;;;8.27;5.10;;;;;;;;;;5033632;28;20261;-67
2021/12/06 04:41:17;;;;;;;7.60;4.80;;;;;;;;;;5033661;28;20257;-67
2021/12/06 04:43:43;;;;;;;8.63;6.00;;;;;;;;;;5049206;28;20261;-67
2021/12/06 04:46:11;;;;;;;7.55;5.22;;;;;;;;;;5033679;28;20679;-66
2021/12/06 04:48:36;;;;;;;6.63;3.90;;;;;;;;;;5033432;28;20640;-66
2021/12/06 04:51:03;;;;;;;6.28;4.28;;;;;;;;;;5033401;28;20174;-68
2021/12/06 04:53:36;;;;;;;5.90;4.90;;;;;;;;;;5033551;28;20170;-67
2021/12/06 04:56:13;;;;;;;5.55;4.97;;;;;;;;;;5033793;28;20147;-67
2021/12/06 04:59:02;;;;;;;7.90;5.28;;;;;;;;;;5033492;28;20257;-67
2021/12/06 05:01:28;;;;;;;7.93;5.10;;;;;;;;;;5034787;28;20232;-67
2021/12/06 05:03:57;;;;;;;5.82;4.95;;;;;;;;;;5033086;28;20224;-67
2021/12/06 05:06:25;;;;;;;6.47;5.57;;;;;;;;;;5033229;28;20190;-67
2021/12/06 05:08:52;;;;;;;7.72;4.90;;;;;;;;;;5033275;28;20221;-67
2021/12/06 05:11:21;;;;;;;10.60;5.95;;;;;;;;;;5033019;28;20176;-67
2021/12/06 05:13:47;;;;;;;11.55;7.13;;;;;;;;;;5032901;28;20640;-67
2021/12/06 05:16:12;;;;;;;9.68;6.47;;;;;;;;;;5032891;28;20240;-67
2021/12/06 05:18:37;;;;;;;8.55;6.18;;;;;;;;;;5032815;28;20217;-66
2021/12/06 05:21:03;;;;;;;10.15;7.15;;;;;;;;;;5032968;28;20167;-67
2021/12/06 05:23:28;;;;;;;8.30;6.32;;;;;;;;;;5032647;28;20228;-67
2021/12/06 05:25:54;;;;;;;9.80;6.57;;;;;;;;;;5032656;28;20170;-67
2021/12/06 05:28:23;;;;;;;10.23;7.10;;;;;;;;;;5032690;28;20167;-67
2021/12/06 05:30:53;;;;;;;9.48;6.68;;;;;;;;;;5032615;28;20166;-67
2021/12/06 05:33:28;;;;;;;9.68;6.45;;;;;;;;;;5032624;28;20268;-67
2021/12/06 05:35:53;;;;;;;12.27;8.07;;;;;;;;;;5032603;28;20745;-67
2021/12/06 05:38:19;;;;;;;11.95;7.95;;;;;;;;;;5032508;28;20245;-66
2021/12/06 05:40:46;;;;;;;13.23;9.05;;;;;;;;;;5032726;28;20166;-67
2021/12/06 05:43:12;;;;;;;15.02;9.60;;;;;;;;;;5032545;28;20243;-68
2021/12/06 05:45:37;;;;;;;14.35;8.80;;;;;;;;;;5032312;28;20679;-67
2021/12/06 05:48:03;;;;;;;14.85;8.73;;;;;;;;;;5032240;28;20193;-66
2021/12/06 05:50:28;;;;;;;13.18;8.85;;;;;;;;;;5032588;28;20550;-66
2021/12/06 05:52:54;;;;;;;12.88;8.18;;;;;;;;;;5032242;28;20190;-67
2021/12/06 05:55:20;;;;;;;16.42;10.60;;;;;;;;;;5032468;28;20261;-68
2021/12/06 05:57:46;;;;;;;19.80;12.63;;;;;;;;;;5032116;28;20190;-66
2021/12/06 06:00:12;;;;;;;24.38;15.20;;;;;;;;;;5032133;28;20636;-66
2021/12/06 06:02:38;;;;;;;16.80;12.30;;;;;;;;;;5032093;28;20194;-66
2021/12/06 06:05:03;;;;;;;14.60;10.95;;;;;;;;;;5032254;28;20202;-66
2021/12/06 06:07:29;;;;;;;13.90;10.13;;;;;;;;;;5031874;28;20196;-66
2021/12/06 06:09:54;;;;;;;14.43;10.73;;;;;;;;;;5032050;28;20224;-66
2021/12/06 06:12:19;;;;;;;16.40;10.25;;;;;;;;;;5032118;28;20162;-66
2021/12/06 06:14:44;;;;;;;16.80;11.55;;;;;;;;;;5031937;28;20711;-67
2021/12/06 06:17:13;;;;;;;20.08;11.25;;;;;;;;;;5032072;28;20170;-66
2021/12/06 06:19:40;;;;;;;19.45;11.65;;;;;;;;;;5031903;28;20166;-66
2021/12/06 06:22:05;;;;;;;20.80;11.95;;;;;;;;;;5032142;28;20268;-66
2021/12/06 06:24:31;;;;;;;19.08;11.40;;;;;;;;;;5031876;28;20249;-66
2021/12/06 06:26:56;;;;;;;15.75;9.60;;;;;;;;;;5032008;28;20273;-67
2021/12/06 06:29:21;;;;;;;17.52;10.55;;;;;;;;;;5031906;28;20268;-67
2021/12/06 06:31:47;;;;;;;21.92;12.20;;;;;;;;;;5031731;28;20253;-67
2021/12/06 06:34:12;;;;;;;25.95;14.15;;;;;;;;;;5032154;28;20161;-68
2021/12/06 06:36:37;;;;;;;17.63;11.82;;;;;;;;;;5032067;28;20655;-67
2021/12/06 06:39:04;;;;;;;19.05;10.23;;;;;;;;;;5031794;28;20236;-66
2021/12/06 06:41:31;;;;;;;18.05;10.48;;;;;;;;;;5032003;28;20198;-67
2021/12/06 06:43:57;;;;;;;24.52;14.43;;;;;;;;;;5032165;28;20217;-66
2021/12/06 06:46:22;;;;;;;25.73;15.57;;;;;;;;;;5031654;28;20676;-66
2021/12/06 06:48:47;;;;;;;36.90;22.10;;;;;;;;;;5031648;28;20173;-67
2021/12/06 06:51:13;;;;;;;49.58;29.10;;;;;;;;;;5031925;28;20170;-67
2021/12/06 06:53:38;;;;;;;42.60;25.83;;;;;;;;;;5031597;28;20519;-66
2021/12/06 06:56:03;;;;;;;26.13;13.63;;;;;;;;;;5031617;28;20293;-66
2021/12/06 06:58:29;;;;;;;23.60;12.65;;;;;;;;;;5031720;28;20562;-67
2021/12/06 07:00:54;;;;;;;20.17;11.07;;;;;;;;;;5031864;28;20229;-67
2021/12/06 07:03:19;;;;;;;15.45;9.85;;;;;;;;;;5031567;28;20641;-67
2021/12/06 07:05:45;;;;;;;18.35;12.00;;;;;;;;;;5031522;28;20175;-67
2021/12/06 07:08:10;;;;;;;18.33;11.05;;;;;;;;;;5031720;28;20240;-66
2021/12/06 07:10:35;;;;;;;17.17;10.63;;;;;;;;;;5031508;28;20175;-66
2021/12/06 07:13:04;;;;;;;13.50;10.05;;;;;;;;;;5031494;28;20208;-67
2021/12/06 07:15:31;;;;;;;18.88;10.88;;;;;;;;;;5031349;28;20684;-66
2021/12/06 07:17:57;;;;;;;15.40;9.52;;;;;;;;;;5031375;28;20254;-66
2021/12/06 07:20:23;;;;;;;17.13;11.02;;;;;;;;;;5031384;28;20194;-67
2021/12/06 07:22:51;;;;;;;26.98;13.55;;;;;;;;;;5031639;28;20683;-66
2021/12/06 07:25:17;;;;;;;21.35;12.35;;;;;;;;;;5035266;28;20185;-67
2021/12/06 07:27:43;;;;;;;25.63;13.23;;;;;;;;;;5034884;28;20194;-66
2021/12/06 07:30:09;;;;;;;24.90;13.55;;;;;;;;;;5035039;28;20213;-67
2021/12/06 07:32:35;;;;;;;19.08;12.10;;;;;;;;;;5035043;28;20214;-67
2021/12/06 07:35:00;;;;;;;18.50;11.57;;;;;;;;;;5034819;28;20194;-67
2021/12/06 07:37:25;;;;;;;18.27;10.70;;;;;;;;;;5034982;28;20180;-66
2021/12/06 07:39:51;;;;;;;16.75;10.45;;;;;;;;;;5034707;28;20185;-66
2021/12/06 07:42:16;;;;;;;19.60;11.15;;;;;;;;;;5034629;28;20233;-66
2021/12/06 07:44:42;;;;;;;21.13;11.18;;;;;;;;;;5034632;28;20232;-68
2021/12/06 07:47:08;;;;;;;18.90;10.95;;;;;;;;;;5034510;28;20191;-66
2021/12/06 07:49:33;;;;;;;18.60;10.90;;;;;;;;;;5034850;28;20615;-67
2021/12/06 07:51:58;;;;;;;18.98;10.27;;;;;;;;;;5034530;28;20220;-67
2021/12/06 07:54:24;;;;;;;17.13;9.95;;;;;;;;;;5034585;28;20548;-67
2021/12/06 07:56:49;;;;;;;20.80;11.50;;;;;;;;;;5034662;28;20171;-67
2021/12/06 07:59:14;;;;;;;21.55;11.05;;;;;;;;;;5034353;28;20174;-67
2021/12/06 08:01:39;;;;;;;18.77;11.07;;;;;;;;;;5034534;28;20249;-67
2021/12/06 08:04:05;;;;;;;21.15;12.05;;;;;;;;;;5034441;28;20600;-66
2021/12/06 08:06:31;;;;;;;30.20;17.98;;;;;;;;;;5034102;28;20190;-66
2021/12/06 08:08:56;;;;;;;32.22;18.73;;;;;;;;;;5034188;28;20648;-66
2021/12/06 08:11:22;;;;;;;26.63;15.82;;;;;;;;;;5034413;28;20174;-66
2021/12/06 08:13:50;;;;;;;26.48;16.35;;;;;;;;;;5033971;28;20652;-66
2021/12/06 08:16:18;;;;;;;23.23;12.80;;;;;;;;;;5034061;28;20687;-66
2021/12/06 08:18:46;;;;;;;27.70;14.07;;;;;;;;;;5033939;28;20171;-67
2021/12/06 08:21:13;;;;;;;29.05;14.80;;;;;;;;;;5034199;28;20254;-66
2021/12/06 08:23:38;;;;;;;27.40;13.82;;;;;;;;;;5034183;28;20178;-69
2021/12/06 08:26:05;;;;;;;29.58;14.73;;;;;;;;;;5033754;28;20619;-68
2021/12/06 08:28:31;;;;;;;27.70;15.43;;;;;;;;;;5033857;28;20169;-68
2021/12/06 08:30:57;;;;;;;28.50;15.80;;;;;;;;;;5033849;28;20175;-67
2021/12/06 08:33:23;;;;;;;27.70;16.13;;;;;;;;;;5033624;28;20251;-67
2021/12/06 08:35:52;;;;;;;29.77;17.00;;;;;;;;;;5032565;28;20177;-66
2021/12/06 08:38:18;;;;;;;30.35;17.20;;;;;;;;;;5033887;28;20166;-66
2021/12/06 08:40:44;;;;;;;30.17;15.88;;;;;;;;;;5034043;28;20212;-67
2021/12/06 08:43:16;;;;;;;27.00;13.90;;;;;;;;;;5033522;28;20170;-66
2021/12/06 08:45:42;;;;;;;27.30;16.92;;;;;;;;;;5032293;28;20244;-67
2021/12/06 08:48:07;;;;;;;35.83;22.75;;;;;;;;;;5033410;28;20675;-67
2021/12/06 08:50:32;;;;;;;27.25;17.40;;;;;;;;;;5033416;28;20208;-67
2021/12/06 08:52:58;;;;;;;28.92;15.70;;;;;;;;;;5033382;28;20174;-66
2021/12/06 08:55:24;;;;;;;30.83;15.30;;;;;;;;;;5033446;28;20166;-66
2021/12/06 08:57:50;;;;;;;26.85;15.43;;;;;;;;;;5033254;28;20170;-66
2021/12/06 09:00:20;;;;;;;29.55;16.30;;;;;;;;;;5033327;28;20166;-67
2021/12/06 09:02:46;;;;;;;28.45;16.98;;;;;;;;;;5033186;28;20177;-68
2021/12/06 09:05:12;;;;;;;26.30;14.48;;;;;;;;;;5033340;28;20186;-67
2021/12/06 09:07:37;;;;;;;57.28;29.52;;;;;;;;;;5032960;28;20276;-67
2021/12/06 09:10:04;;;;;;;43.78;24.27;;;;;;;;;;5033191;28;20162;-67
2021/12/06 09:12:30;;;;;;;46.95;26.80;;;;;;;;;;5032959;28;20162;-66
2021/12/06 09:14:57;;;;;;;30.58;17.13;;;;;;;;;;5033131;28;20278;-66
2021/12/06 09:17:23;;;;;;;39.75;20.75;;;;;;;;;;5032893;28;20167;-66
2021/12/06 09:19:48;;;;;;;36.60;20.90;;;;;;;;;;5033105;28;20209;-66
2021/12/06 09:22:14;;;;;;;27.92;14.52;;;;;;;;;;5033309;28;20244;-66
2021/12/06 09:24:39;;;;;;;21.45;12.57;;;;;;;;;;5032669;28;20759;-66
2021/12/06 09:27:05;;;;;;;29.48;14.43;;;;;;;;;;5032684;28;20241;-66
2021/12/06 09:29:32;;;;;;;23.13;12.52;;;;;;;;;;5032711;28;20170;-67
2021/12/06 09:31:59;;;;;;;25.15;14.30;;;;;;;;;;5032610;28;20660;-66
2021/12/06 09:34:26;;;;;;;28.42;13.57;;;;;;;;;;5032851;28;20272;-66
2021/12/06 09:36:51;;;;;;;31.45;17.38;;;;;;;;;;5032490;28;20178;-68
2021/12/06 09:39:17;;;;;;;30.98;15.57;;;;;;;;;;5032508;28;20553;-68
2021/12/06 09:41:42;;;;;;;29.50;17.13;;;;;;;;;;5032450;28;20171;-69
2021/12/06 09:44:09;;;;;;;36.83;22.40;;;;;;;;;;5032653;28;20185;-68
2021/12/06 09:46:36;;;;;;;34.53;20.15;;;;;;;;;;5032262;28;20765;-68
2021/12/06 09:49:07;;;;;;;36.97;20.02;;;;;;;;;;5032625;28;20174;-68
2021/12/06 09:51:33;;;;;;;35.28;20.83;;;;;;;;;;5032313;28;20170;-67
2021/12/06 09:53:59;;;;;;;36.33;20.73;;;;;;;;;;5032244;28;20241;-67
2021/12/06 09:56:31;;;;;;;40.22;21.83;;;;;;;;;;5032487;28;20539;-68
2021/12/06 09:58:57;;;;;;;35.13;17.30;;;;;;;;;;5032536;28;20171;-67
2021/12/06 10:01:26;;;;;;;34.03;19.40;;;;;;;;;;5031955;28;20186;-67
2021/12/06 10:03:53;;;;;;;36.28;17.73;;;;;;;;;;5032281;28;20248;-67
2021/12/06 10:06:18;;;;;;;33.90;17.90;;;;;;;;;;5031943;28;20248;-67
2021/12/06 10:08:45;;;;;;;27.75;16.50;;;;;;;;;;5032036;28;20163;-67
2021/12/06 10:11:12;;;;;;;30.55;17.20;;;;;;;;;;5032266;28;20559;-67
2021/12/06 10:13:38;;;;;;;33.95;19.17;;;;;;;;;;5031945;28;20705;-66
2021/12/06 10:16:03;;;;;;;31.85;18.40;;;;;;;;;;5032266;28;20182;-67
2021/12/06 10:18:29;;;;;;;32.10;18.33;;;;;;;;;;5031866;28;20177;-67
2021/12/06 10:20:54;;;;;;;34.15;19.60;;;;;;;;;;5032218;28;20254;-67
2021/12/06 10:23:19;;;;;;;33.25;18.60;;;;;;;;;;5031971;28;20166;-68
2021/12/06 10:25:46;;;;;;;38.63;20.88;;;;;;;;;;5032165;28;20177;-67
2021/12/06 10:28:12;;;;;;;38.92;19.13;;;;;;;;;;5031828;28;20197;-67
2021/12/06 10:30:42;;;;;;;36.35;19.08;;;;;;;;;;5032040;28;20166;-68
2021/12/06 10:33:10;;;;;;;34.58;18.67;;;;;;;;;;5031794;28;20316;-67
2021/12/06 10:35:38;;;;;;;44.47;24.40;;;;;;;;;;5032096;28;20178;-68
2021/12/06 10:38:04;;;;;;;35.05;18.73;;;;;;;;;;5031747;28;20334;-66
2021/12/06 10:40:37;;;;;;;33.85;18.38;;;;;;;;;;5031767;28;20174;-66
2021/12/06 10:43:05;;;;;;;31.40;17.25;;;;;;;;;;5031690;28;20182;-66
2021/12/06 10:45:31;;;;;;;32.60;17.92;;;;;;;;;;5031763;28;20175;-67
2021/12/06 10:48:08;;;;;;;33.00;17.67;;;;;;;;;;5031904;28;20194;-67
2021/12/06 10:50:34;;;;;;;33.97;18.10;;;;;;;;;;5031876;28;20150;-67
2021/12/06 10:53:00;;;;;;;34.38;20.02;;;;;;;;;;5031661;28;20177;-66
2021/12/06 10:55:28;;;;;;;31.45;18.98;;;;;;;;;;5031655;28;20714;-66
2021/12/06 10:57:55;;;;;;;34.08;17.80;;;;;;;;;;5032126;28;20261;-68
2021/12/06 11:00:39;;;;;;;40.70;18.40;;;;;;;;;;5035446;28;20190;-69
2021/12/06 11:03:05;;;;;;;36.22;17.50;;;;;;;;;;5035682;28;20205;-68
2021/12/06 11:05:32;;;;;;;31.67;17.95;;;;;;;;;;5035370;28;20179;-67
2021/12/06 11:08:14;;;;;;;34.13;19.17;;;;;;;;;;5035189;28;20194;-67
2021/12/06 11:11:00;;;;;;;36.63;19.98;;;;;;;;;;5035228;28;20655;-66
2021/12/06 11:13:30;;;;;;;43.22;22.35;;;;;;;;;;5035009;28;20648;-67
2021/12/06 11:15:55;;;;;;;37.42;21.05;;;;;;;;;;5035335;28;20664;-68
2021/12/06 11:18:38;;;;;;;47.40;23.80;;;;;;;;;;5035136;28;20223;-68
2021/12/06 11:21:12;;;;;;;35.67;21.38;;;;;;;;;;5035306;28;20431;-67
2021/12/06 11:23:54;;;;;;;38.13;21.10;;;;;;;;;;5035057;28;20213;-67
2021/12/06 11:26:20;;;;;;;45.67;26.70;;;;;;;;;;5035109;28;20576;-67
2021/12/06 11:28:45;;;;;;;48.55;28.30;;;;;;;;;;5034927;28;20163;-68
2021/12/06 11:31:14;;;;;;;48.45;25.88;;;;;;;;;;5034897;28;20171;-68
2021/12/06 11:33:39;;;;;;;34.70;20.02;;;;;;;;;;5034671;28;20715;-66
2021/12/06 11:36:17;;;;;;;42.88;24.55;;;;;;;;;;5034960;28;20170;-67
2021/12/06 11:38:46;;;;;;;50.67;30.55;;;;;;;;;;5034621;28;20552;-67
2021/12/06 11:41:11;;;;;;;47.63;28.88;;;;;;;;;;5034907;28;20174;-67
2021/12/06 11:43:37;;;;;;;55.97;31.88;;;;;;;;;;5034518;28;20655;-67
2021/12/06 11:46:03;;;;;;;46.78;24.77;;;;;;;;;;5034679;28;20194;-69
2021/12/06 11:48:30;;;;;;;32.20;20.30;;;;;;;;;;5034798;28;20178;-68
2021/12/06 11:51:15;;;;;;;43.47;24.60;;;;;;;;;;5034743;28;20193;-67
2021/12/06 11:53:44;;;;;;;40.75;21.45;;;;;;;;;;5034783;28;20166;-67
2021/12/06 11:56:18;;;;;;;50.25;25.80;;;;;;;;;;5034660;28;20182;-67
2021/12/06 11:58:46;;;;;;;46.05;24.13;;;;;;;;;;5034700;28;20170;-67
2021/12/06 12:01:17;;;;;;;54.40;31.92;;;;;;;;;;5034888;28;20257;-67
2021/12/06 12:03:43;;;;;;;43.28;21.83;;;;;;;;;;5034318;28;20265;-67
2021/12/06 12:06:20;;;;;;;33.42;19.35;;;;;;;;;;5034162;28;20177;-67
2021/12/06 12:08:46;;;;;;;34.55;20.13;;;;;;;;;;5034174;28;20178;-68
2021/12/06 12:11:11;;;;;;;41.70;20.90;;;;;;;;;;5034212;28;20646;-67
2021/12/06 12:13:37;;;;;;;32.88;19.42;;;;;;;;;;5034424;28;20170;-67
2021/12/06 12:16:06;;;;;;;35.17;21.17;;;;;;;;;;5034017;28;20198;-67
2021/12/06 12:18:32;;;;;;;37.30;21.05;;;;;;;;;;5034088;28;20174;-67
2021/12/06 12:20:58;;;;;;;42.00;23.27;;;;;;;;;;5034011;28;20254;-69
2021/12/06 12:23:24;;;;;;;42.53;22.70;;;;;;;;;;5032734;28;20202;-67
2021/12/06 12:25:59;;;;;;;41.75;23.75;;;;;;;;;;5034165;28;20174;-67
2021/12/06 12:28:35;;;;;;;36.67;20.85;;;;;;;;;;5033884;28;20238;-67
2021/12/06 12:31:00;;;;;;;34.20;20.08;;;;;;;;;;5034099;28;20209;-67
2021/12/06 12:33:26;;;;;;;38.22;21.33;;;;;;;;;;5033706;28;20186;-67
2021/12/06 12:35:54;;;;;;;40.22;23.55;;;;;;;;;;5033903;28;20170;-67
2021/12/06 12:38:22;;;;;;;45.13;22.23;;;;;;;;;;5033987;28;20170;-68
2021/12/06 12:40:49;;;;;;;47.40;23.70;;;;;;;;;;5032363;28;20181;-67
2021/12/06 12:43:17;;;;;;;45.65;23.60;;;;;;;;;;5033706;28;20174;-68
2021/12/06 12:45:45;;;;;;;44.30;25.05;;;;;;;;;;5033457;28;20178;-68
2021/12/06 12:48:11;;;;;;;59.03;28.08;;;;;;;;;;5033366;28;20195;-67
2021/12/06 12:50:37;;;;;;;47.67;27.98;;;;;;;;;;5033319;28;20174;-67
2021/12/06 12:53:20;;;;;;;49.83;26.90;;;;;;;;;;5033531;28;20185;-68
2021/12/06 12:55:49;;;;;;;51.80;26.58;;;;;;;;;;5033327;28;20151;-67
2021/12/06 12:58:19;;;;;;;53.97;28.92;;;;;;;;;;5033108;28;20170;-67
2021/12/06 13:00:47;;;;;;;59.08;33.42;;;;;;;;;;5033393;28;20718;-67
2021/12/06 13:03:41;;;;;;;57.53;31.77;;;;;;;;;;5033311;28;20178;-66
2021/12/06 13:06:25;;;;;;;55.90;30.48;;;;;;;;;;5032038;28;20190;-68
2021/12/06 13:09:02;;;;;;;53.42;27.27;;;;;;;;;;5033288;28;20174;-68
2021/12/06 13:11:30;;;;;;;57.42;28.55;;;;;;;;;;5033249;28;20159;-68
2021/12/06 13:13:57;;;;;;;52.53;26.98;;;;;;;;;;5033136;28;20173;-67
2021/12/06 13:21:32;;;;;;;43.10;23.85;;;;;;;;;;5032288;28;20166;-69
2021/12/06 13:24:23;;;;;;;40.78;23.90;;;;;;;;;;5033075;28;20289;-69
2021/12/06 13:26:50;;;;;;;41.38;23.40;;;;;;;;;;5032930;28;20194;-68
2021/12/06 13:29:17;;;;;;;45.03;23.38;;;;;;;;;;5032617;28;20171;-68
2021/12/06 13:31:42;;;;;;;47.35;24.23;;;;;;;;;;5032651;28;20190;-69
2021/12/06 13:34:21;;;;;;;50.08;25.55;;;;;;;;;;5033021;28;20213;-68
2021/12/06 13:36:51;;;;;;;54.67;27.55;;;;;;;;;;5032702;28;20166;-68
2021/12/06 13:39:35;;;;;;;50.00;26.83;;;;;;;;;;5032789;28;20561;-68
2021/12/06 13:42:01;;;;;;;46.38;25.83;;;;;;;;;;5032424;28;20170;-67
2021/12/06 13:44:47;;;;;;;51.03;25.83;;;;;;;;;;5032376;28;20185;-68
2021/12/06 13:47:12;;;;;;;48.97;24.70;;;;;;;;;;5032294;28;20194;-68
2021/12/06 13:49:50;;;;;;;48.40;25.70;;;;;;;;;;5032656;28;20170;-68
2021/12/06 13:52:15;;;;;;;52.13;28.73;;;;;;;;;;5032315;28;20184;-68
2021/12/06 13:54:44;;;;;;;82.78;39.42;;;;;;;;;;5032476;28;20166;-68
2021/12/06 13:57:11;;;;;;;58.70;29.83;;;;;;;;;;5032165;28;20162;-67
2021/12/06 13:59:41;;;;;;;57.25;31.85;;;;;;;;;;5032454;28;20175;-68
2021/12/06 14:02:08;;;;;;;52.58;29.77;;;;;;;;;;5032433;28;20257;-68
2021/12/06 14:04:35;;;;;;;53.67;28.48;;;;;;;;;;5030889;28;20181;-68
2021/12/06 14:07:03;;;;;;;93.80;50.88;;;;;;;;;;5032284;28;20285;-67
2021/12/06 14:09:29;;;;;;;70.95;40.03;;;;;;;;;;5032336;28;20175;-68
2021/12/06 14:11:56;;;;;;;54.53;27.92;;;;;;;;;;5032072;28;20194;-69
2021/12/06 14:14:22;;;;;;;51.58;26.00;;;;;;;;;;5031877;28;20673;-67
2021/12/06 14:16:49;;;;;;;50.92;26.42;;;;;;;;;;5031975;28;20208;-68
2021/12/06 14:19:15;;;;;;;65.10;36.78;;;;;;;;;;5031081;28;20244;-67
2021/12/06 14:21:40;;;;;;;55.22;31.38;;;;;;;;;;5032103;28;20683;-68
2021/12/06 14:24:06;;;;;;;60.45;30.25;;;;;;;;;;5032110;28;20167;-67
2021/12/06 14:26:33;;;;;;;48.35;27.08;;;;;;;;;;5031863;28;20690;-67
2021/12/06 14:28:58;;;;;;;45.90;26.15;;;;;;;;;;5030607;28;20210;-67
2021/12/06 14:31:24;;;;;;;49.28;25.08;;;;;;;;;;5031777;28;20605;-68
2021/12/06 14:33:49;;;;;;;49.08;26.13;;;;;;;;;;5034703;28;20166;-68
2021/12/06 14:36:20;;;;;;;44.03;23.85;;;;;;;;;;5036255;28;20177;-68
2021/12/06 14:38:45;;;;;;;53.65;26.90;;;;;;;;;;5036201;28;20178;-67
2021/12/06 14:41:13;;;;;;;48.45;25.85;;;;;;;;;;5036146;28;20183;-68
2021/12/06 14:43:39;;;;;;;50.08;27.00;;;;;;;;;;5035767;28;20155;-68
2021/12/06 14:46:06;;;;;;;69.18;26.55;;;;;;;;;;5035748;28;20162;-68
2021/12/06 14:48:31;;;;;;;48.22;25.45;;;;;;;;;;5035639;28;20202;-68